Flood From: 18-02-2018 16:00 Until: 19-02-2018 16:00 warning for: Flood Level: Yellow info button

Although rather usual in this region, locally or potentially dangerous phenomena are expected. (such as local winds, summer thunderstorms, rising streams or high waves) Be aware and pay attention to the latest weather updates, especially if you carry out activities exposed to weather or close to a stream or shoreline. 


Meteo18 Weather Cam more information Meteo18 Weather Cam


Thunder radar more information blitzortung!


Rain radar more information rain snow radar


Visit our other weather sites:

Template documentation
and downloads

And another site



Weather Underground History page Text

Daily Summary for January 22, 2017 Units:  English    Metric   Both
« Previous Day
Next Day »
Daily Weekly Monthly Yearly Custom
  High: Low: Average:
Temperature: TemperatureC °F -5.4 °F -0.6 °F
Dew Point: DewpointC °F -6.8 °F -3.8 °F
Humidity: Humidity % 55 % 79 %
Wind Speed: WindSpeedKMH mph 0.0 mph 2.4 mph
Wind Gust: WindSpeedGustKMH mph - -
Wind:- - South
Pressure: PressurehPa in 1023.2 in -
Precipitation: 0.0 in    
Historical Graphs
 
 
Tabular Data for January 22, 2017
Time Temperature Dew Point Pressure Wind Wind Speed Wind Gust Humidity Rainfall Rate (Hourly)
TemperatureC °F DewpointC °F PressurehPa in Calm     Humidity % HourlyPrecipMM in
00:02 -2.3 °F -4.2 °F 1026.0 in NW 1.6 mph   87 % 0.0 in
00:07 -2.2 °F -4.2 °F 1026.0 in North 3.2 mph 3.2 mph 86 % 0.0 in
00:12 -2.4 °F -4.4 °F 1026.0 in NNW 3.2 mph 4.8 mph 86 % 0.0 in
00:17 -2.3 °F -4.3 °F 1026.0 in NNW 3.2 mph 4.8 mph 86 % 0.0 in
00:22 -2.2 °F -4.2 °F 1025.6 in North 1.6 mph 4.8 mph 86 % 0.0 in
00:27 -2.1 °F -4.1 °F 1025.6 in NNW 1.6 mph 4.8 mph 86 % 0.0 in
00:32 -1.9 °F -3.9 °F 1025.6 in North 1.6 mph 4.8 mph 86 % 0.0 in
00:37 -1.8 °F -4.0 °F 1025.6 in North 1.6 mph 4.8 mph 85 % 0.0 in
00:42 -1.8 °F -4.0 °F 1025.6 in North 1.6 mph 3.2 mph 85 % 0.0 in
00:47 -1.8 °F -4.0 °F 1025.6 in Calm   3.2 mph 85 % 0.0 in
00:52 -2.0 °F -4.2 °F 1025.6 in North 1.6 mph 1.6 mph 85 % 0.0 in
00:57 -2.1 °F -4.3 °F 1025.6 in Calm   1.6 mph 85 % 0.0 in
01:02 -2.1 °F -4.1 °F 1025.6 in North 1.6 mph 1.6 mph 86 % 0.0 in
01:07 -2.2 °F -4.4 °F 1025.6 in Calm   3.2 mph 85 % 0.0 in
01:12 -2.6 °F -4.6 °F 1025.6 in Calm   3.2 mph 86 % 0.0 in
01:17 -2.6 °F -4.6 °F 1025.6 in Calm   3.2 mph 86 % 0.0 in
01:22 -2.4 °F -4.3 °F 1025.6 in NNE 1.6 mph 1.6 mph 87 % 0.0 in
01:27 -2.2 °F -4.2 °F 1025.6 in NE 1.6 mph 1.6 mph 86 % 0.0 in
01:32 -2.3 °F -4.3 °F 1025.6 in NW 1.6 mph 1.6 mph 86 % 0.0 in
01:37 -2.4 °F -4.4 °F 1025.6 in NW 1.6 mph 1.6 mph 86 % 0.0 in
01:42 -2.6 °F -4.6 °F 1025.6 in Calm   3.2 mph 86 % 0.0 in
01:47 -2.4 °F -4.3 °F 1025.6 in NW 1.6 mph 3.2 mph 87 % 0.0 in
01:52 -2.3 °F -4.2 °F 1025.3 in NW 1.6 mph 3.2 mph 87 % 0.0 in
01:57 -2.9 °F -5.1 °F 1025.3 in WNW 3.2 mph 3.2 mph 85 % 0.0 in
02:02 -3.6 °F -5.4 °F 1025.3 in WNW 3.2 mph 3.2 mph 87 % 0.0 in
02:07 -4.1 °F -5.8 °F 1025.3 in WNW 1.6 mph 3.2 mph 88 % 0.0 in
02:12 -3.8 °F -5.1 °F 1024.9 in Calm   3.2 mph 91 % 0.0 in
02:17 -3.4 °F -4.8 °F 1024.9 in Calm   3.2 mph 90 % 0.0 in
02:22 -3.2 °F -4.8 °F 1024.9 in Calm   1.6 mph 89 % 0.0 in
02:27 -3.1 °F -4.7 °F 1024.9 in Calm   1.6 mph 89 % 0.0 in
02:32 -3.2 °F -4.9 °F 1024.9 in NNE 1.6 mph 1.6 mph 88 % 0.0 in
02:37 -3.3 °F -5.0 °F 1024.9 in NNE 3.2 mph 3.2 mph 88 % 0.0 in
02:42 -3.4 °F -5.1 °F 1024.9 in Calm   3.2 mph 88 % 0.0 in
02:47 -3.8 °F -5.6 °F 1024.9 in Calm   3.2 mph 87 % 0.0 in
02:52 -3.5 °F -4.9 °F 1025.3 in Calm   3.2 mph 90 % 0.0 in
02:57 -3.5 °F -5.0 °F 1025.3 in Calm   1.6 mph 89 % 0.0 in
03:02 -3.8 °F -5.5 °F 1025.3 in Calm   1.6 mph 88 % 0.0 in
03:07 -4.2 °F -5.9 °F 1024.9 in Calm   1.6 mph 88 % 0.0 in
03:12 -4.2 °F -5.7 °F 1024.9 in Calm   1.6 mph 89 % 0.0 in
03:17 -4.6 °F -6.1 °F 1024.9 in Calm   1.6 mph 89 % 0.0 in
03:22 -4.4 °F -5.5 °F 1024.9 in Calm   1.6 mph 92 % 0.0 in
03:27 -4.0 °F -5.3 °F 1024.9 in Calm   1.6 mph 91 % 0.0 in
03:32 -3.6 °F -4.7 °F 1024.9 in Calm   1.6 mph 92 % 0.0 in
03:37 -3.8 °F -5.2 °F 1024.9 in Calm   1.6 mph 90 % 0.0 in
03:42 -3.9 °F -5.3 °F 1024.9 in WNW 1.6 mph 1.6 mph 90 % 0.0 in
03:47 -4.1 °F -5.3 °F 1024.9 in Calm   1.6 mph 91 % 0.0 in
03:52 -3.9 °F -5.0 °F 1024.9 in Calm   1.6 mph 92 % 0.0 in
03:57 -3.7 °F -4.8 °F 1024.9 in Calm   1.6 mph 92 % 0.0 in
04:02 -3.6 °F -4.7 °F 1024.9 in Calm   1.6 mph 92 % 0.0 in
04:07 -3.4 °F -4.5 °F 1024.9 in Calm   1.6 mph 92 % 0.0 in
04:17 -3.2 °F -4.5 °F 1024.9 in Calm   1.6 mph 91 % 0.0 in
04:22 -3.1 °F -4.5 °F 1024.9 in Calm   1.6 mph 90 % 0.0 in
04:27 -3.4 °F -5.0 °F 1024.9 in Calm     89 % 0.0 in
04:32 -3.5 °F -4.9 °F 1024.9 in Calm     90 % 0.0 in
04:37 -3.6 °F -5.0 °F 1024.9 in Calm     90 % 0.0 in
04:42 -4.2 °F -5.7 °F 1024.9 in Calm   1.6 mph 89 % 0.0 in
04:47 -4.3 °F -5.5 °F 1024.9 in Calm   1.6 mph 91 % 0.0 in
04:52 -4.6 °F -6.0 °F 1024.9 in Calm   1.6 mph 90 % 0.0 in
04:57 -4.9 °F -6.3 °F 1024.9 in Calm   1.6 mph 90 % 0.0 in
05:02 -4.9 °F -6.0 °F 1024.9 in Calm   1.6 mph 92 % 0.0 in
05:12 -4.2 °F -5.2 °F 1024.6 in NW 1.6 mph   93 % 0.0 in
05:17 -3.7 °F -4.7 °F 1024.6 in Calm   1.6 mph 93 % 0.0 in
05:22 -3.7 °F -5.0 °F 1024.6 in North 1.6 mph 1.6 mph 91 % 0.0 in
05:32 -4.6 °F -6.0 °F 1024.6 in Calm   3.2 mph 90 % 0.0 in
05:37 -5.0 °F -6.4 °F 1024.6 in NNE 1.6 mph 3.2 mph 90 % 0.0 in
05:42 -5.1 °F -6.2 °F 1024.6 in North 1.6 mph 3.2 mph 92 % 0.0 in
05:47 -4.9 °F -5.9 °F 1024.9 in Calm   3.2 mph 93 % 0.0 in
05:52 -4.9 °F -6.0 °F 1024.6 in Calm   3.2 mph 92 % 0.0 in
05:57 -4.9 °F -6.0 °F 1024.6 in Calm   1.6 mph 92 % 0.0 in
06:02 -5.2 °F -6.4 °F 1024.6 in Calm   1.6 mph 91 % 0.0 in
06:07 -5.2 °F -6.3 °F 1024.6 in Calm   1.6 mph 92 % 0.0 in
06:12 -5.1 °F -6.1 °F 1024.6 in Calm   1.6 mph 93 % 0.0 in
06:17 -4.9 °F -5.9 °F 1024.6 in Calm   1.6 mph 93 % 0.0 in
06:22 -4.6 °F -5.6 °F 1024.6 in Calm   1.6 mph 93 % 0.0 in
06:32 -4.3 °F -5.3 °F 1024.6 in Calm   1.6 mph 93 % 0.0 in
06:42 -4.2 °F -5.6 °F 1024.6 in Calm   3.2 mph 90 % 0.0 in
06:47 -4.4 °F -5.6 °F 1024.6 in North 1.6 mph 3.2 mph 91 % 0.0 in
06:57 -5.4 °F -6.8 °F 1024.3 in North 1.6 mph 1.6 mph 90 % 0.0 in
07:02 -5.4 °F -6.6 °F 1024.3 in NNE 1.6 mph 1.6 mph 91 % 0.0 in
07:12 -5.1 °F -6.1 °F 1024.3 in North 1.6 mph 1.6 mph 93 % 0.0 in
07:17 -4.7 °F -5.7 °F 1024.3 in NNW 1.6 mph 1.6 mph 93 % 0.0 in
07:22 -4.3 °F -5.5 °F 1024.3 in Calm   1.6 mph 91 % 0.0 in
07:32 -3.9 °F -5.6 °F 1024.3 in Calm   1.6 mph 88 % 0.0 in
07:37 -3.9 °F -5.7 °F 1024.3 in Calm   1.6 mph 87 % 0.0 in
07:42 -4.1 °F -5.9 °F 1024.3 in Calm   1.6 mph 87 % 0.0 in
07:47 -4.2 °F -6.0 °F 1024.3 in Calm   1.6 mph 87 % 0.0 in
07:52 -4.1 °F -5.8 °F 1024.3 in Calm   1.6 mph 88 % 0.0 in
07:57 -3.8 °F -5.6 °F 1024.3 in Calm     87 % 0.0 in
08:02 -3.8 °F -5.8 °F 1024.3 in Calm     86 % 0.0 in
08:12 -3.7 °F -5.7 °F 1024.3 in NW 1.6 mph 1.6 mph 86 % 0.0 in
08:17 -3.3 °F -5.6 °F 1024.3 in Calm   1.6 mph 84 % 0.0 in
08:22 -3.2 °F -5.7 °F 1024.3 in Calm   1.6 mph 83 % 0.0 in
08:27 -3.7 °F -6.2 °F 1024.3 in Calm   1.6 mph 83 % 0.0 in
08:32 -4.1 °F -6.1 °F 1024.3 in North 1.6 mph 1.6 mph 86 % 0.0 in
08:37 -4.6 °F -6.4 °F 1024.3 in Calm   3.2 mph 87 % 0.0 in
08:42 -4.4 °F -6.2 °F 1024.3 in NNW 1.6 mph 3.2 mph 87 % 0.0 in
08:47 -4.2 °F -6.0 °F 1024.3 in NNW 1.6 mph 3.2 mph 87 % 0.0 in
08:52 -3.9 °F -6.0 °F 1024.3 in NW 1.6 mph 3.2 mph 85 % 0.0 in
08:57 -3.8 °F -6.1 °F 1024.3 in Calm   4.8 mph 84 % 0.0 in
09:02 -3.8 °F -6.1 °F 1024.3 in Calm   4.8 mph 84 % 0.0 in
09:12 -3.2 °F -5.8 °F 1024.6 in Calm   1.6 mph 82 % 0.0 in
09:17 -3.3 °F -6.1 °F 1024.3 in Calm   3.2 mph 81 % 0.0 in
09:22 -3.6 °F -6.4 °F 1024.6 in Calm   3.2 mph 81 % 0.0 in
09:32 -4.0 °F -6.3 °F 1024.6 in East 1.6 mph 3.2 mph 84 % 0.0 in
09:37 -4.1 °F -6.1 °F 1024.6 in ENE 1.6 mph 1.6 mph 86 % 0.0 in
09:42 -4.3 °F -6.1 °F 1024.6 in ENE 1.6 mph 1.6 mph 87 % 0.0 in
09:47 -4.3 °F -6.1 °F 1024.6 in Calm   3.2 mph 87 % 0.0 in
09:52 -4.2 °F -6.0 °F 1024.6 in Calm   3.2 mph 87 % 0.0 in
10:02 -4.0 °F -5.8 °F 1024.6 in Calm   3.2 mph 87 % 0.0 in
10:07 -3.9 °F -5.7 °F 1024.6 in Calm   1.6 mph 87 % 0.0 in
10:12 -3.6 °F -5.6 °F 1024.6 in Calm   1.6 mph 86 % 0.0 in
10:22 -3.2 °F -5.4 °F 1024.6 in Calm   1.6 mph 85 % 0.0 in
10:27 -2.9 °F -5.1 °F 1024.6 in Calm   1.6 mph 85 % 0.0 in
10:32 -2.6 °F -4.8 °F 1024.6 in Calm   1.6 mph 85 % 0.0 in
10:37 -2.6 °F -4.9 °F 1024.6 in Calm   1.6 mph 84 % 0.0 in
10:42 -2.6 °F -4.8 °F 1024.6 in Calm   1.6 mph 85 % 0.0 in
10:52 -2.1 °F -4.1 °F 1024.6 in Calm   1.6 mph 86 % 0.0 in
10:57 -1.7 °F -3.7 °F 1024.6 in Calm     86 % 0.0 in
11:02 -1.2 °F -3.4 °F 1024.6 in Calm     85 % 0.0 in
11:07 -0.9 °F -3.4 °F 1024.9 in Calm     83 % 0.0 in
11:12 -0.9 °F -3.7 °F 1024.9 in Calm     81 % 0.0 in
11:17 -0.8 °F -3.5 °F 1024.6 in Calm   1.6 mph 82 % 0.0 in
11:22 -0.5 °F -3.4 °F 1024.6 in Calm   1.6 mph 81 % 0.0 in
11:27 -0.2 °F -3.2 °F 1024.6 in Calm   1.6 mph 80 % 0.0 in
11:32 -0.1 °F -3.1 °F 1024.6 in Calm   1.6 mph 80 % 0.0 in
11:37 0.1 °F -2.9 °F 1024.6 in Calm   1.6 mph 80 % 0.0 in
11:42 0.3 °F -2.7 °F 1024.6 in Calm   1.6 mph 80 % 0.0 in
11:47 0.4 °F -2.6 °F 1024.6 in Calm   1.6 mph 80 % 0.0 in
11:52 0.5 °F -2.7 °F 1024.3 in Calm   1.6 mph 79 % 0.0 in
12:02 1.2 °F -2.2 °F 1024.3 in Calm   1.6 mph 78 % 0.0 in
12:07 1.5 °F -2.4 °F 1024.3 in East 1.6 mph 1.6 mph 75 % 0.0 in
12:12 1.6 °F -2.9 °F 1024.3 in SE 1.6 mph 3.2 mph 72 % 0.0 in
12:17 1.8 °F -2.2 °F 1024.3 in Calm   3.2 mph 75 % 0.0 in
12:22 2.2 °F -2.3 °F 1024.3 in East 3.2 mph 3.2 mph 72 % 0.0 in
12:27 2.2 °F -2.9 °F 1024.3 in East 3.2 mph 3.2 mph 69 % 0.0 in
12:32 2.3 °F -3.0 °F 1024.3 in East 6.4 mph 6.4 mph 68 % 0.0 in
12:37 2.3 °F -3.2 °F 1024.3 in ENE 6.4 mph 6.4 mph 67 % 0.0 in
12:42 2.3 °F -2.6 °F 1024.3 in ENE 4.8 mph 8.0 mph 70 % 0.0 in
12:47 2.3 °F -3.0 °F 1024.3 in East 4.8 mph 8.0 mph 68 % 0.0 in
12:52 2.3 °F -2.6 °F 1024.3 in ENE 1.6 mph 8.0 mph 70 % 0.0 in
12:57 2.4 °F -2.7 °F 1024.3 in East 3.2 mph 8.0 mph 69 % 0.0 in
13:02 2.4 °F -2.9 °F 1023.9 in ENE 6.4 mph 8.0 mph 68 % 0.0 in
13:07 2.5 °F -2.6 °F 1023.9 in Calm   8.0 mph 69 % 0.0 in
13:12 2.7 °F -2.6 °F 1023.9 in ENE 4.8 mph 8.0 mph 68 % 0.0 in
13:17 2.8 °F -2.7 °F 1023.9 in ENE 3.2 mph 8.0 mph 67 % 0.0 in
13:22 2.8 °F -2.5 °F 1023.9 in NNE 3.2 mph 8.0 mph 68 % 0.0 in
13:32 2.9 °F -2.8 °F 1023.6 in NE 3.2 mph 8.0 mph 66 % 0.0 in
13:37 2.9 °F -2.6 °F 1023.6 in NE 3.2 mph 8.0 mph 67 % 0.0 in
13:42 3.1 °F -2.6 °F 1023.6 in NNE 4.8 mph 6.4 mph 66 % 0.0 in
13:47 3.2 °F -2.5 °F 1023.6 in NE 3.2 mph 9.7 mph 66 % 0.0 in
13:52 3.3 °F -2.2 °F 1023.6 in NNE 8.0 mph 9.7 mph 67 % 0.0 in
13:57 3.6 °F -2.8 °F 1023.2 in NNW 1.6 mph 9.7 mph 63 % 0.0 in
14:02 3.7 °F -2.5 °F 1023.2 in NNE 1.6 mph 9.7 mph 64 % 0.0 in
14:07 3.9 °F -2.5 °F 1023.2 in North 4.8 mph 11.3 mph 63 % 0.0 in
14:12 4.2 °F -2.2 °F 1023.2 in NNW 3.2 mph 11.3 mph 63 % 0.0 in
14:22 4.4 °F -2.5 °F 1023.2 in NNE 8.0 mph 12.9 mph 61 % 0.0 in
14:27 4.7 °F -2.6 °F 1023.2 in NNE 6.4 mph 11.3 mph 59 % 0.0 in
14:32 4.8 °F -3.2 °F 1023.2 in NNE 6.4 mph 11.3 mph 56 % 0.0 in
14:37 4.9 °F -2.7 °F 1023.2 in NE 8.0 mph 12.9 mph 58 % 0.0 in
14:42 5.1 °F -2.5 °F 1023.2 in North 9.7 mph 12.9 mph 58 % 0.0 in
14:47 5.1 °F -3.0 °F 1023.2 in NE 9.7 mph 14.5 mph 56 % 0.0 in
14:52 5.3 °F -2.5 °F 1023.2 in North 4.8 mph 14.5 mph 57 % 0.0 in
14:57 5.3 °F -2.8 °F 1023.2 in NE 3.2 mph 14.5 mph 56 % 0.0 in
15:02 5.3 °F -2.3 °F 1023.2 in NNE 8.0 mph 14.5 mph 58 % 0.0 in
15:07 5.3 °F -2.5 °F 1023.2 in ENE 3.2 mph 12.9 mph 57 % 0.0 in
15:12 5.3 °F -3.0 °F 1023.2 in NE 8.0 mph 12.9 mph 55 % 0.0 in
15:17 5.3 °F -2.3 °F 1023.2 in North 3.2 mph 9.7 mph 58 % 0.0 in
15:27 5.4 °F -2.4 °F 1023.2 in NE 6.4 mph 9.7 mph 57 % 0.0 in
15:32 5.3 °F -2.8 °F 1023.2 in WNW 3.2 mph 9.7 mph 56 % 0.0 in
15:37 5.2 °F -2.9 °F 1023.2 in NNE 4.8 mph 11.3 mph 56 % 0.0 in
15:42 5.0 °F -2.8 °F 1023.2 in NNW 1.6 mph 11.3 mph 57 % 0.0 in
15:47 4.9 °F -2.9 °F 1023.2 in NNW 1.6 mph 11.3 mph 57 % 0.0 in
15:52 4.9 °F -2.4 °F 1023.2 in Calm   11.3 mph 59 % 0.0 in
16:02 4.7 °F -2.2 °F 1023.6 in NNE 4.8 mph 9.7 mph 61 % 0.0 in
16:07 4.6 °F -2.1 °F 1023.6 in North 4.8 mph 6.4 mph 62 % 0.0 in
16:12 4.5 °F -2.2 °F 1023.6 in NNW 1.6 mph 6.4 mph 62 % 0.0 in
16:17 4.4 °F -2.0 °F 1023.6 in Calm   6.4 mph 63 % 0.0 in
16:22 4.4 °F -2.0 °F 1023.6 in North 4.8 mph 4.8 mph 63 % 0.0 in
16:27 4.3 °F -2.1 °F 1023.6 in NNW 3.2 mph 8.0 mph 63 % 0.0 in
16:37 4.0 °F -2.0 °F 1023.6 in NNE 4.8 mph 9.7 mph 65 % 0.0 in
16:42 3.8 °F -2.0 °F 1023.6 in NNW 4.8 mph 9.7 mph 66 % 0.0 in
16:47 3.6 °F -1.8 °F 1023.2 in North 4.8 mph 9.7 mph 68 % 0.0 in
16:52 3.4 °F -1.9 °F 1023.2 in NNW 6.4 mph 9.7 mph 68 % 0.0 in
16:57 3.3 °F -2.0 °F 1023.2 in NNW 1.6 mph 9.7 mph 68 % 0.0 in
17:02 3.3 °F -2.0 °F 1023.2 in WNW 1.6 mph 9.7 mph 68 % 0.0 in
17:07 3.3 °F -2.2 °F 1023.6 in NW 1.6 mph 8.0 mph 67 % 0.0 in
17:12 3.2 °F -2.3 °F 1023.2 in NNW 1.6 mph 3.2 mph 67 % 0.0 in
17:22 2.7 °F -2.2 °F 1023.2 in North 1.6 mph 3.2 mph 70 % 0.0 in
17:27 2.6 °F -2.3 °F 1023.6 in NNW 3.2 mph 3.2 mph 70 % 0.0 in
17:32 2.6 °F -2.3 °F 1023.6 in NNW 1.6 mph 3.2 mph 70 % 0.0 in
17:37 2.5 °F -2.4 °F 1023.6 in NW 1.6 mph 6.4 mph 70 % 0.0 in
17:42 2.3 °F -2.2 °F 1023.6 in NNE 3.2 mph 6.4 mph 72 % 0.0 in
17:47 2.2 °F -2.3 °F 1023.6 in NNW 1.6 mph 6.4 mph 72 % 0.0 in
17:52 2.2 °F -2.5 °F 1023.9 in Calm   6.4 mph 71 % 0.0 in
17:57 2.2 °F -2.5 °F 1023.9 in NW 1.6 mph 4.8 mph 71 % 0.0 in
18:02 2.1 °F -2.6 °F 1023.9 in NW 1.6 mph 4.8 mph 71 % 0.0 in
18:07 2.0 °F -2.3 °F 1023.9 in NNW 1.6 mph 3.2 mph 73 % 0.0 in
18:12 1.9 °F -2.4 °F 1024.3 in NNW 3.2 mph 8.0 mph 73 % 0.0 in
18:17 2.0 °F -2.7 °F 1024.3 in NNW 8.0 mph 8.0 mph 71 % 0.0 in
18:22 1.9 °F -2.8 °F 1024.3 in NNW 4.8 mph 9.7 mph 71 % 0.0 in
18:32 1.9 °F -2.8 °F 1024.3 in NNW 9.7 mph 11.3 mph 71 % 0.0 in
18:37 1.9 °F -2.8 °F 1024.3 in North 8.0 mph 11.3 mph 71 % 0.0 in
18:42 1.8 °F -2.7 °F 1024.3 in NNW 4.8 mph 16.1 mph 72 % 0.0 in
18:47 1.7 °F -2.8 °F 1024.3 in NNE 3.2 mph 16.1 mph 72 % 0.0 in
18:57 1.6 °F -2.7 °F 1024.6 in Calm   16.1 mph 73 % 0.0 in
19:02 1.6 °F -2.5 °F 1024.3 in Calm   16.1 mph 74 % 0.0 in
19:07 1.5 °F -2.6 °F 1024.3 in North 11.3 mph 11.3 mph 74 % 0.0 in
19:12 1.5 °F -2.6 °F 1024.6 in NNW 1.6 mph 11.3 mph 74 % 0.0 in
19:17 1.4 °F -2.7 °F 1024.6 in NNE 4.8 mph 11.3 mph 74 % 0.0 in
19:22 1.3 °F -2.6 °F 1024.6 in NNW 3.2 mph 11.3 mph 75 % 0.0 in
19:27 1.3 °F -2.6 °F 1024.6 in North 8.0 mph 9.7 mph 75 % 0.0 in
19:32 1.2 °F -2.7 °F 1024.6 in North 8.0 mph 9.7 mph 75 % 0.0 in
19:37 1.2 °F -2.7 °F 1024.6 in NW 1.6 mph 12.9 mph 75 % 0.0 in
19:42 1.2 °F -2.6 °F 1024.6 in North 3.2 mph 12.9 mph 76 % 0.0 in
19:47 1.1 °F -2.7 °F 1024.9 in NNE 4.8 mph 12.9 mph 76 % 0.0 in
19:52 1.1 °F -2.7 °F 1024.9 in NNE 6.4 mph 12.9 mph 76 % 0.0 in
19:57 1.1 °F -2.7 °F 1024.9 in North 9.7 mph 16.1 mph 76 % 0.0 in
20:02 1.1 °F -2.7 °F 1024.9 in NNW 6.4 mph 16.1 mph 76 % 0.0 in
20:07 1.1 °F -2.7 °F 1024.9 in NNW 4.8 mph 16.1 mph 76 % 0.0 in
20:12 1.0 °F -2.6 °F 1024.6 in NNE 8.0 mph 16.1 mph 77 % 0.0 in
20:17 0.9 °F -2.7 °F 1024.9 in NNE 8.0 mph 16.1 mph 77 % 0.0 in
20:22 0.9 °F -2.7 °F 1024.6 in North 6.4 mph 16.1 mph 77 % 0.0 in
20:32 0.8 °F -2.6 °F 1024.9 in North 8.0 mph 14.5 mph 78 % 0.0 in
20:37 0.7 °F -2.7 °F 1024.9 in North 3.2 mph 12.9 mph 78 % 0.0 in
20:42 0.7 °F -2.7 °F 1024.9 in NNW 9.7 mph 12.9 mph 78 % 0.0 in
20:47 0.6 °F -2.8 °F 1024.9 in NE 3.2 mph 12.9 mph 78 % 0.0 in
20:52 0.6 °F -2.8 °F 1024.9 in NNW 1.6 mph 12.9 mph 78 % 0.0 in
20:57 0.5 °F -2.7 °F 1024.9 in NW 3.2 mph 12.9 mph 79 % 0.0 in
21:02 0.4 °F -2.8 °F 1024.9 in NE 8.0 mph 12.9 mph 79 % 0.0 in
21:07 0.4 °F -2.8 °F 1024.9 in NE 6.4 mph 9.7 mph 79 % 0.0 in
21:12 0.3 °F -2.9 °F 1024.9 in NNW 3.2 mph 9.7 mph 79 % 0.0 in
21:17 0.3 °F -2.9 °F 1025.3 in North 6.4 mph 9.7 mph 79 % 0.0 in
21:22 0.3 °F -2.7 °F 1025.3 in North 1.6 mph 9.7 mph 80 % 0.0 in
21:27 0.2 °F -2.8 °F 1025.3 in North 8.0 mph 11.3 mph 80 % 0.0 in
21:32 0.2 °F -2.7 °F 1024.9 in North 6.4 mph 11.3 mph 81 % 0.0 in
21:37 0.1 °F -2.8 °F 1024.9 in NNE 3.2 mph 9.7 mph 81 % 0.0 in
21:43 0.1 °F -2.8 °F 1024.9 in NE 4.8 mph 9.7 mph 81 % 0.0 in
21:52 0.1 °F -2.8 °F 1024.9 in North 3.2 mph 12.9 mph 81 % 0.0 in
21:57 0.0 °F -2.9 °F 1024.9 in NNW 8.0 mph 12.9 mph 81 % 0.0 in
22:02 0.0 °F -2.9 °F 1024.9 in North 8.0 mph 12.9 mph 81 % 0.0 in
22:07 0.0 °F -2.9 °F 1024.9 in North 9.7 mph 12.9 mph 81 % 0.0 in
22:12 0.0 °F -2.9 °F 1024.9 in NNE 9.7 mph 12.9 mph 81 % 0.0 in
22:17 0.0 °F -2.9 °F 1024.9 in NW 9.7 mph 14.5 mph 81 % 0.0 in
22:22 0.0 °F -2.9 °F 1024.9 in NNW 4.8 mph 14.5 mph 81 % 0.0 in
22:27 -0.1 °F -3.0 °F 1024.9 in NW 4.8 mph 12.9 mph 81 % 0.0 in
22:32 -0.1 °F -3.0 °F 1024.9 in NW 3.2 mph 12.9 mph 81 % 0.0 in
22:37 -0.1 °F -3.0 °F 1024.9 in NW 4.8 mph 9.7 mph 81 % 0.0 in
22:42 -0.1 °F -3.0 °F 1025.3 in NNW 1.6 mph 9.7 mph 81 % 0.0 in
22:47 -0.1 °F -3.0 °F 1025.3 in NNE 3.2 mph 8.0 mph 81 % 0.0 in
22:52 0.0 °F -2.9 °F 1025.3 in NNE 3.2 mph 8.0 mph 81 % 0.0 in
22:57 0.0 °F -2.9 °F 1025.3 in NNW 1.6 mph 6.4 mph 81 % 0.0 in
23:02 0.0 °F -2.9 °F 1025.3 in Calm   6.4 mph 81 % 0.0 in
23:07 0.0 °F -2.9 °F 1025.3 in NE 1.6 mph 4.8 mph 81 % 0.0 in
23:12 0.0 °F -2.9 °F 1025.3 in Calm   4.8 mph 81 % 0.0 in
23:17 0.0 °F -2.9 °F 1025.6 in Calm   3.2 mph 81 % 0.0 in
23:22 -0.1 °F -3.0 °F 1025.6 in Calm   3.2 mph 81 % 0.0 in
23:27 0.0 °F -2.9 °F 1025.6 in Calm   3.2 mph 81 % 0.0 in
23:32 0.0 °F -3.0 °F 1025.6 in Calm   3.2 mph 80 % 0.0 in
23:37 -0.1 °F -3.0 °F 1025.6 in Calm   4.8 mph 81 % 0.0 in
23:42 -0.1 °F -3.0 °F 1025.6 in NNE 1.6 mph 4.8 mph 81 % 0.0 in
23:47 -0.2 °F -2.9 °F 1025.6 in NE 4.8 mph 6.4 mph 82 % 0.0 in
23:52 -0.2 °F -2.9 °F 1025.6 in NE 1.6 mph 6.4 mph 82 % 0.0 in
23:57 -0.3 °F -3.0 °F 1025.6 in Calm   6.4 mph 82 % 0.0 in
Meteo18
Compliments of Weather Underground - 4 mb

Script developed by  Jim McMurry - jmcmurry@mwt.net Adapted for the template by  Wim van der Kuil - Leuven-Template.eu

You find our weather info also at:

European Weather Network

Weather Underground

Equipment we use:

Weather-station
Davis Vue

Weather-program
Meteobridge

Weather-server
Raspberry PI 2 B+

Provider
1 and 1

Davis Vue

Meteobridge

Raspberry PI 2 B+

1 and 1